Time;durP1;ratioP1;P1;durP2;ratioP2;P2;SDS_P1;SDS_P2;PMS_P1;PMS_P2;Temp;Humidity;BMP_temperature;BMP_pressure;BME280_temperature;BME280_humidity;BME280_pressure;Samples;Min_cycle;Max_cycle;Signal;HPM_P1;HPM_P2
2020/12/01 00:00:18;;;;;;;22.75;4.22;;;;;;;7.14;98.76;101390.06;5092034;28;20034;-73
2020/12/01 00:02:44;;;;;;;28.52;3.30;;;;;;;7.14;98.84;101389.19;5094261;28;20063;-73
2020/12/01 00:05:11;;;;;;;23.25;4.93;;;;;;;7.08;99.15;101376.16;5100022;28;20497;-72
2020/12/01 00:07:37;;;;;;;29.52;5.22;;;;;;;7.10;99.33;101380.50;5125307;27;20035;-72
2020/12/01 00:10:04;;;;;;;25.48;6.22;;;;;;;7.14;99.52;101386.56;5100252;28;20397;-72
2020/12/01 00:12:30;;;;;;;21.23;3.63;;;;;;;7.16;99.20;101382.97;5092337;28;20493;-72
2020/12/01 00:14:55;;;;;;;25.42;3.85;;;;;;;7.10;99.29;101385.75;5098931;28;20071;-72
2020/12/01 00:17:20;;;;;;;27.02;3.22;;;;;;;7.13;98.93;101390.06;5097333;28;20024;-73
2020/12/01 00:19:45;;;;;;;16.20;3.60;;;;;;;7.20;97.35;101383.78;5097732;28;20389;-73
2020/12/01 00:22:12;;;;;;;30.60;4.53;;;;;;;7.21;96.72;101394.25;5093118;28;20029;-72
2020/12/01 00:24:37;;;;;;;29.52;3.40;;;;;;;7.19;96.83;101395.22;5094293;28;20047;-72
2020/12/01 00:27:03;;;;;;;37.47;4.50;;;;;;;7.22;96.22;101397.75;5097841;28;20086;-72
2020/12/01 00:29:28;;;;;;;33.72;4.72;;;;;;;7.27;95.35;101404.63;5089381;28;21323;-73
2020/12/01 00:31:53;;;;;;;29.98;3.55;;;;;;;7.30;94.92;101403.72;5094169;28;20024;-72
2020/12/01 00:34:19;;;;;;;26.17;3.30;;;;;;;7.34;94.33;101401.91;5095326;28;20371;-71
2020/12/01 00:36:44;;;;;;;27.30;4.60;;;;;;;7.25;95.04;101402.97;5094465;28;20030;-72
2020/12/01 00:39:10;;;;;;;31.33;4.30;;;;;;;7.15;95.51;101401.44;5094444;28;20020;-72
2020/12/01 00:41:37;;;;;;;24.85;4.60;;;;;;;7.15;93.18;101402.28;5092566;28;20496;-71
2020/12/01 00:44:03;;;;;;;27.65;5.72;;;;;;;7.09;94.14;101402.44;5094345;28;20031;-71
2020/12/01 00:46:28;;;;;;;43.63;7.05;;;;;;;7.05;92.78;101398.13;5096704;28;20035;-72
2020/12/01 00:48:54;;;;;;;23.83;3.58;;;;;;;7.02;93.31;101408.69;5097410;28;20035;-72
2020/12/01 00:51:19;;;;;;;23.40;3.63;;;;;;;6.94;93.44;101403.59;5094834;28;20016;-71
2020/12/01 00:53:45;;;;;;;20.15;3.00;;;;;;;6.89;93.19;101400.22;5095410;28;20110;-71
2020/12/01 00:56:11;;;;;;;24.60;3.63;;;;;;;6.88;93.31;101403.75;5097726;28;20019;-70
2020/12/01 00:58:37;;;;;;;21.70;3.13;;;;;;;6.96;92.93;101396.53;5095635;28;20024;-70
2020/12/01 01:01:02;;;;;;;27.73;4.53;;;;;;;6.96;92.38;101406.19;5094146;28;20084;-71
2020/12/01 01:03:27;;;;;;;19.05;3.38;;;;;;;6.89;92.85;101407.22;5094978;28;20034;-70
2020/12/01 01:05:53;;;;;;;22.48;2.95;;;;;;;6.82;93.33;101402.97;5092889;28;20084;-71
2020/12/01 01:08:18;;;;;;;18.65;3.10;;;;;;;6.75;93.44;101395.22;5092140;28;20409;-71
2020/12/01 01:10:44;;;;;;;28.02;3.20;;;;;;;6.73;93.99;101401.41;5094784;28;20028;-70
2020/12/01 01:13:09;;;;;;;24.65;3.80;;;;;;;6.84;93.23;101401.19;5091378;28;20020;-71
2020/12/01 01:15:35;;;;;;;21.85;4.03;;;;;;;7.04;92.67;101400.78;5096246;28;20052;-72
2020/12/01 01:18:01;;;;;;;32.00;3.30;;;;;;;7.03;92.62;101401.66;5094721;28;20136;-71
2020/12/01 01:20:27;;;;;;;23.77;3.90;;;;;;;7.04;91.91;101403.41;5092895;28;20023;-71
2020/12/01 01:22:53;;;;;;;23.50;4.32;;;;;;;7.08;91.79;101405.97;5092522;28;20028;-71
2020/12/01 01:25:19;;;;;;;23.08;3.65;;;;;;;7.02;91.94;101406.06;5091536;28;20024;-71
2020/12/01 01:27:46;;;;;;;28.95;3.47;;;;;;;6.99;91.91;101406.16;5092827;28;20024;-71
2020/12/01 01:30:15;;;;;;;40.28;5.95;;;;;;;6.97;91.80;101403.53;5088520;28;20442;-71
2020/12/01 01:32:41;;;;;;;20.08;3.17;;;;;;;7.05;91.22;101406.00;5091387;28;20042;-71
2020/12/01 01:35:06;;;;;;;23.30;4.60;;;;;;;6.94;92.46;101406.22;5093232;28;20028;-71
2020/12/01 01:37:31;;;;;;;20.52;3.45;;;;;;;7.07;91.50;101400.72;5095730;28;20024;-71
2020/12/01 01:39:57;;;;;;;32.50;4.60;;;;;;;6.97;92.00;101414.03;5091000;28;20024;-71
2020/12/01 01:42:22;;;;;;;20.88;3.00;;;;;;;6.86;92.61;101408.13;5093180;28;20043;-71
2020/12/01 01:44:47;;;;;;;33.00;4.65;;;;;;;6.96;91.92;101408.81;5092501;28;20051;-71
2020/12/01 01:47:19;;;;;;;31.25;4.35;;;;;;;6.81;92.84;101407.38;5094595;28;20102;-71
2020/12/01 01:49:47;;;;;;;24.17;4.38;;;;;;;7.05;91.42;101406.00;5092584;28;20022;-71
2020/12/01 01:52:17;;;;;;;38.55;5.75;;;;;;;6.99;91.87;101414.03;5090850;28;20086;-71
2020/12/01 01:54:46;;;;;;;19.13;3.53;;;;;;;6.99;91.67;101414.88;5089240;28;20662;-71
2020/12/01 01:57:11;;;;;;;12.50;2.20;;;;;;;7.01;91.24;101418.34;5092371;28;20119;-71
2020/12/01 01:59:38;;;;;;;20.63;3.47;;;;;;;7.16;90.11;101413.66;5087959;28;20453;-71
2020/12/01 02:02:04;;;;;;;14.98;2.70;;;;;;;7.24;89.19;101402.09;5093881;28;20039;-71
2020/12/01 02:04:31;;;;;;;16.90;3.08;;;;;;;7.12;90.02;101412.84;5092706;28;20397;-72
2020/12/01 02:07:01;;;;;;;15.13;2.92;;;;;;;7.01;90.64;101409.59;5092012;28;20043;-72
2020/12/01 02:09:31;;;;;;;18.27;2.25;;;;;;;6.95;90.84;101401.84;5090127;28;20120;-71
2020/12/01 02:11:58;;;;;;;21.00;5.32;;;;;;;6.85;91.47;101405.56;5093598;28;20446;-72
2020/12/01 02:14:32;;;;;;;11.60;1.52;;;;;;;6.76;92.12;101401.34;5092083;28;20455;-71
2020/12/01 02:17:12;;;;;;;21.38;2.22;;;;;;;6.76;92.16;101396.09;5096229;28;20063;-70
2020/12/01 02:19:37;;;;;;;12.73;2.40;;;;;;;6.94;91.84;101400.97;5094658;28;20028;-71
2020/12/01 02:22:03;;;;;;;17.58;2.33;;;;;;;6.96;91.73;101404.44;5130976;27;20073;-71
2020/12/01 02:24:31;;;;;;;20.35;3.20;;;;;;;6.95;92.03;101407.09;5097016;28;20024;-71
2020/12/01 02:26:59;;;;;;;15.15;2.13;;;;;;;6.88;92.30;101405.50;5099946;28;20489;-71
2020/12/01 02:29:28;;;;;;;20.50;2.70;;;;;;;6.97;91.89;101407.91;5092800;28;20031;-71
2020/12/01 02:31:54;;;;;;;15.15;2.25;;;;;;;6.96;92.21;101407.06;5101219;28;20054;-72
2020/12/01 02:34:30;;;;;;;11.80;2.33;;;;;;;6.93;92.47;101406.28;5098953;28;20031;-71
2020/12/01 02:36:55;;;;;;;14.80;2.37;;;;;;;6.92;93.07;101407.16;5097260;28;20040;-71
2020/12/01 02:39:25;;;;;;;19.10;2.92;;;;;;;6.92;93.56;101407.16;5099521;28;20094;-72
2020/12/01 02:41:52;;;;;;;19.23;1.90;;;;;;;6.91;93.83;101402.78;5098722;28;20043;-71
2020/12/01 02:44:17;;;;;;;12.80;1.90;;;;;;;6.95;93.89;101401.84;5091658;28;20055;-71
2020/12/01 02:46:43;;;;;;;10.77;2.25;;;;;;;6.98;94.61;101407.03;5102861;27;20527;-70
2020/12/01 02:49:08;;;;;;;18.73;2.67;;;;;;;6.92;95.61;101397.50;5090593;28;20100;-71
2020/12/01 02:51:34;;;;;;;17.55;2.03;;;;;;;6.87;96.21;101399.34;5101945;28;20038;-72
2020/12/01 02:54:00;;;;;;;13.65;2.30;;;;;;;6.89;96.53;101394.94;5095962;28;20107;-70
2020/12/01 02:56:26;;;;;;;9.02;1.77;;;;;;;6.88;96.51;101392.38;5093166;28;20541;-70
2020/12/01 02:58:52;;;;;;;8.63;2.15;;;;;;;6.85;97.11;101395.03;5096902;28;20032;-71
2020/12/01 03:04:39;;;;;;;12.15;1.77;;;;;;;6.87;96.53;101395.88;5091365;28;20097;-70
2020/12/01 03:07:04;;;;;;;9.07;1.30;;;;;;;6.88;96.69;101392.38;5103629;28;20054;-70
2020/12/01 03:09:29;;;;;;;8.88;2.25;;;;;;;6.89;96.45;101384.44;5098604;28;20375;-70
2020/12/01 03:11:55;;;;;;;14.35;2.45;;;;;;;6.95;96.36;101394.81;5096861;28;20030;-70
2020/12/01 03:14:22;;;;;;;15.30;2.03;;;;;;;6.93;96.73;101388.75;5098877;28;20470;-70
2020/12/01 03:16:49;;;;;;;17.77;2.80;;;;;;;6.95;97.20;101388.69;5098578;28;20106;-71
2020/12/01 03:19:14;;;;;;;20.42;2.08;;;;;;;6.93;97.44;101391.38;5090862;28;20032;-70
2020/12/01 03:21:39;;;;;;;9.07;1.73;;;;;;;6.88;97.34;101392.38;5104826;28;20027;-71
2020/12/01 03:24:05;;;;;;;12.88;2.10;;;;;;;6.90;97.10;101380.06;5095167;28;20019;-72
2020/12/01 03:26:30;;;;;;;10.90;2.20;;;;;;;6.82;97.50;101395.94;5103498;28;20030;-71
2020/12/01 03:28:55;;;;;;;12.02;1.70;;;;;;;6.83;97.89;101397.72;5098174;28;20032;-71
2020/12/01 03:31:21;;;;;;;16.05;3.30;;;;;;;6.87;97.42;101395.88;5097181;28;20030;-71
2020/12/01 03:33:47;;;;;;;20.08;1.80;;;;;;;7.01;96.37;101393.81;5102306;28;20032;-71
2020/12/01 03:36:13;;;;;;;12.50;1.98;;;;;;;6.95;96.54;101393.97;5100613;28;20385;-72
2020/12/01 03:38:38;;;;;;;10.45;2.10;;;;;;;6.95;96.68;101391.31;5103396;28;20020;-71
2020/12/01 03:41:04;;;;;;;18.15;2.65;;;;;;;6.98;96.68;101391.28;5092929;28;20423;-71
2020/12/01 03:43:29;;;;;;;11.65;2.25;;;;;;;7.00;96.86;101384.22;5101460;28;20619;-72
2020/12/01 03:45:55;;;;;;;13.30;1.35;;;;;;;6.98;97.27;101383.41;5096697;28;20459;-71
2020/12/01 03:48:21;;;;;;;10.00;2.10;;;;;;;7.00;97.42;101387.69;5102321;28;20020;-71
2020/12/01 03:50:46;;;;;;;7.47;1.60;;;;;;;6.98;97.97;101379.00;5093390;28;20030;-72
2020/12/01 03:53:11;;;;;;;9.38;1.75;;;;;;;6.99;98.01;101379.88;5098684;28;20110;-72
2020/12/01 03:55:37;;;;;;;16.88;2.45;;;;;;;6.96;98.29;101365.00;5092106;28;20082;-71
2020/12/01 03:58:02;;;;;;;12.20;2.13;;;;;;;7.01;98.22;101363.16;5101228;28;20036;-71
2020/12/01 04:00:30;;;;;;;15.43;2.45;;;;;;;7.04;98.26;101356.13;5090796;28;20046;-72
2020/12/01 04:02:56;;;;;;;10.32;2.08;;;;;;;7.09;98.39;101363.00;5098176;28;20562;-71
2020/12/01 04:05:26;;;;;;;17.60;2.08;;;;;;;7.09;98.94;101365.63;5095342;28;20027;-72
2020/12/01 04:07:52;;;;;;;8.60;2.03;;;;;;;7.08;99.25;101349.88;5103023;28;20106;-71
2020/12/01 04:10:19;;;;;;;9.93;2.28;;;;;;;7.12;99.17;101351.53;5094756;28;20102;-74
2020/12/01 04:12:45;;;;;;;10.38;1.98;;;;;;;7.12;99.57;101356.78;5092625;28;20016;-71
2020/12/01 04:15:13;;;;;;;11.60;2.83;;;;;;;7.11;99.68;101340.16;5088813;28;20403;-71
2020/12/01 04:17:38;;;;;;;18.60;2.42;;;;;;;7.13;100.00;101346.25;5103244;28;20031;-71
2020/12/01 04:20:05;;;;;;;11.52;2.10;;;;;;;7.12;99.99;101349.78;5091129;28;20047;-71
2020/12/01 04:22:31;;;;;;;6.70;1.70;;;;;;;7.19;100.00;101367.16;5095691;28;20059;-71
2020/12/01 04:24:56;;;;;;;15.27;2.00;;;;;;;7.31;99.50;101362.50;5097878;28;20126;-71
2020/12/01 04:27:21;;;;;;;12.65;2.58;;;;;;;7.36;99.23;101356.25;5092153;28;20024;-71
2020/12/01 04:29:46;;;;;;;11.05;2.78;;;;;;;7.41;98.96;101351.75;5094997;28;20030;-70
2020/12/01 04:32:12;;;;;;;21.80;3.45;;;;;;;7.49;98.54;101355.06;5091976;28;20312;-70
2020/12/01 04:34:37;;;;;;;17.38;2.92;;;;;;;7.53;98.22;101351.47;5096046;28;20039;-70
2020/12/01 04:37:04;;;;;;;17.80;2.20;;;;;;;7.55;98.40;101375.09;5098157;28;20522;-72
2020/12/01 04:39:29;;;;;;;23.35;3.08;;;;;;;7.57;98.31;101359.28;5097297;28;20036;-71
2020/12/01 04:41:55;;;;;;;22.50;3.45;;;;;;;7.56;98.64;101365.44;5095539;28;20024;-71
2020/12/01 04:44:34;;;;;;;17.00;2.55;;;;;;;7.53;98.88;101364.63;5092403;28;20098;-71
2020/12/01 04:47:05;;;;;;;19.65;3.13;;;;;;;7.53;99.11;101372.53;5098231;28;20477;-70
2020/12/01 04:49:37;;;;;;;9.68;2.10;;;;;;;7.55;98.99;101375.09;5091230;28;20068;-71
2020/12/01 04:52:42;;;;;;;12.40;2.50;;;;;;;7.59;98.57;101376.75;5091957;28;20127;-71
2020/12/01 04:55:47;;;;;;;19.98;3.35;;;;;;;7.56;98.75;101374.19;5089956;28;20107;-72
2020/12/01 04:58:39;;;;;;;15.35;3.20;;;;;;;7.56;98.85;101383.84;5092482;28;20119;-71
2020/12/01 05:01:15;;;;;;;14.48;3.13;;;;;;;7.59;98.82;101376.75;5098136;28;20065;-73
2020/12/01 05:04:14;;;;;;;23.60;3.70;;;;;;;7.59;98.67;101379.41;5096779;28;20141;-72
2020/12/01 05:07:16;;;;;;;17.00;3.15;;;;;;;7.60;99.06;101389.00;5096100;28;20036;-71
2020/12/01 05:09:45;;;;;;;14.18;2.42;;;;;;;7.60;98.85;101402.16;5091430;28;20037;-71
2020/12/01 05:12:16;;;;;;;25.83;3.10;;;;;;;7.61;98.90;101389.88;5096107;28;20027;-71
2020/12/01 05:14:51;;;;;;;19.40;2.33;;;;;;;7.61;98.74;101403.88;5094338;28;20126;-71
2020/12/01 05:17:53;;;;;;;15.30;3.33;;;;;;;7.62;98.82;101404.75;5097681;28;20019;-70
2020/12/01 05:20:19;;;;;;;18.13;3.53;;;;;;;7.62;98.90;101416.13;5094090;28;20028;-71
2020/12/01 05:22:50;;;;;;;13.05;2.30;;;;;;;7.60;99.30;101417.94;5098439;28;20469;-71
2020/12/01 05:25:24;;;;;;;19.52;2.72;;;;;;;7.62;98.95;101412.66;5096584;28;20012;-71
2020/12/01 05:27:50;;;;;;;19.25;2.75;;;;;;;7.61;99.07;101429.34;5091371;28;20045;-72
2020/12/01 05:30:22;;;;;;;16.58;3.05;;;;;;;7.61;99.11;101430.19;5088222;28;20099;-72
2020/12/01 05:32:59;;;;;;;13.23;2.28;;;;;;;7.60;99.28;101430.25;5088627;28;20172;-73
2020/12/01 05:35:29;;;;;;;25.85;2.60;;;;;;;7.60;99.20;101436.38;5096195;28;20027;-71
2020/12/01 05:38:00;;;;;;;20.13;2.58;;;;;;;7.59;99.22;101447.78;5093188;28;20024;-72
2020/12/01 05:40:28;;;;;;;13.90;2.40;;;;;;;7.58;99.30;101459.22;5095193;28;20027;-71
2020/12/01 05:42:54;;;;;;;19.15;3.75;;;;;;;7.56;99.62;101452.25;5093101;28;20039;-71
2020/12/01 05:45:25;;;;;;;27.70;4.28;;;;;;;7.58;98.90;101448.69;5095979;28;20020;-72
2020/12/01 05:48:16;;;;;;;16.55;3.58;;;;;;;7.60;99.04;101452.16;5089632;28;20388;-72
2020/12/01 05:50:54;;;;;;;22.13;4.10;;;;;;;7.59;98.74;101460.09;5100513;28;20113;-71
2020/12/01 05:53:19;;;;;;;22.63;4.05;;;;;;;7.58;98.90;101450.44;5088512;28;20124;-73
2020/12/01 05:56:00;;;;;;;16.58;3.42;;;;;;;7.62;98.12;101450.34;5091844;28;20099;-73
2020/12/01 05:58:37;;;;;;;16.08;2.05;;;;;;;7.63;97.93;101457.34;5096443;28;20110;-72
2020/12/01 06:01:03;;;;;;;18.85;2.72;;;;;;;7.63;97.58;101438.94;5102539;28;20054;-71
2020/12/01 06:03:35;;;;;;;12.48;2.38;;;;;;;7.67;97.25;101460.75;5096313;28;20607;-73
2020/12/01 06:06:01;;;;;;;18.42;4.00;;;;;;;7.70;96.97;101468.59;5103856;28;20085;-72
2020/12/01 06:08:42;;;;;;;24.42;3.40;;;;;;;7.74;96.76;101475.53;5097783;28;20051;-71
2020/12/01 06:11:36;;;;;;;23.90;3.15;;;;;;;7.76;96.41;101474.56;5098565;28;20030;-71
2020/12/01 06:14:14;;;;;;;16.85;4.13;;;;;;;7.80;96.26;101470.13;5097541;28;20056;-71
2020/12/01 06:16:48;;;;;;;21.23;3.90;;;;;;;7.79;96.25;101486.81;5094929;28;20466;-72
2020/12/01 06:19:24;;;;;;;22.17;3.45;;;;;;;7.82;96.00;101483.22;5098695;28;20051;-71
2020/12/01 06:22:27;;;;;;;18.13;2.97;;;;;;;7.83;95.70;101485.84;5124163;27;20055;-73
2020/12/01 06:25:22;;;;;;;22.27;3.30;;;;;;;7.78;95.72;101490.31;5098190;28;20631;-72
2020/12/01 06:28:09;;;;;;;24.35;3.25;;;;;;;7.76;95.73;101500.03;5095302;28;20385;-72
2020/12/01 06:31:00;;;;;;;24.70;3.42;;;;;;;7.69;96.45;101504.56;5100358;28;20088;-72
2020/12/01 06:33:48;;;;;;;22.27;3.15;;;;;;;7.65;97.41;101504.66;5097959;28;20066;-72
2020/12/01 06:36:48;;;;;;;23.85;4.07;;;;;;;7.64;97.25;101516.09;5098263;28;20484;-71
2020/12/01 06:39:28;;;;;;;23.33;4.07;;;;;;;7.63;97.50;101503.81;5089404;28;20031;-70
2020/12/01 06:42:05;;;;;;;21.58;3.92;;;;;;;7.62;97.23;101515.25;5090784;28;20084;-70
2020/12/01 06:44:30;;;;;;;21.08;4.18;;;;;;;7.60;97.59;101522.31;5099711;28;20039;-70
2020/12/01 06:46:57;;;;;;;25.55;4.28;;;;;;;7.60;97.38;101524.94;5091950;28;20020;-70
2020/12/01 06:49:26;;;;;;;25.92;4.55;;;;;;;7.60;97.22;101528.44;5095586;28;20031;-70
2020/12/01 06:51:57;;;;;;;26.60;4.50;;;;;;;7.63;96.88;101531.03;5094461;28;20381;-70
2020/12/01 06:54:22;;;;;;;22.88;2.75;;;;;;;7.63;96.81;101530.13;5094320;28;20459;-70
2020/12/01 06:56:58;;;;;;;30.02;4.55;;;;;;;7.70;95.89;101532.59;5102796;28;20031;-70
2020/12/01 06:59:24;;;;;;;36.45;4.43;;;;;;;7.78;95.12;101529.78;5092592;28;20028;-70
2020/12/01 07:01:49;;;;;;;32.75;4.40;;;;;;;7.78;95.35;101549.09;5095957;28;20445;-74
2020/12/01 07:04:26;;;;;;;21.08;3.42;;;;;;;7.82;95.01;101543.75;5093221;28;20032;-73
2020/12/01 07:06:56;;;;;;;29.00;3.72;;;;;;;7.80;95.16;101554.34;5090791;28;20032;-74
2020/12/01 07:09:27;;;;;;;20.88;4.10;;;;;;;7.74;96.14;101557.97;5084669;28;20524;-73
2020/12/01 07:11:58;;;;;;;32.53;4.90;;;;;;;7.68;96.68;101573.88;5091455;28;20379;-73
2020/12/01 07:14:34;;;;;;;34.85;5.40;;;;;;;7.67;96.92;101573.91;5096812;27;20047;-73
2020/12/01 07:17:00;;;;;;;30.10;3.60;;;;;;;7.64;97.08;101579.25;5059748;28;20031;-74
2020/12/01 07:19:44;;;;;;;30.55;6.45;;;;;;;7.61;97.42;101582.78;5090566;28;20047;-74
2020/12/01 07:22:42;;;;;;;39.08;5.95;;;;;;;7.61;97.45;101579.28;5092217;28;20043;-73
2020/12/01 07:25:22;;;;;;;28.75;4.20;;;;;;;7.57;97.27;101580.25;5094421;28;20512;-74
2020/12/01 07:28:12;;;;;;;30.27;4.05;;;;;;;7.56;97.33;101589.91;5093413;28;20043;-74
2020/12/01 07:30:56;;;;;;;31.25;4.35;;;;;;;7.62;96.83;101602.06;5093053;28;20048;-74
2020/12/01 07:33:27;;;;;;;24.58;4.10;;;;;;;7.57;96.42;101603.91;5087081;28;20020;-74
2020/12/01 07:36:23;;;;;;;15.02;3.03;;;;;;;7.59;95.88;101608.28;5097110;28;20066;-74
2020/12/01 07:38:49;;;;;;;25.13;3.83;;;;;;;7.60;96.14;101611.75;5085212;28;20040;-74
2020/12/01 07:41:23;;;;;;;22.73;4.18;;;;;;;7.52;95.97;101601.38;5090781;28;20036;-74
2020/12/01 07:44:05;;;;;;;20.25;3.80;;;;;;;7.57;95.73;101620.56;5095599;28;20047;-74
2020/12/01 07:49:09;;;;;;;14.60;2.72;;;;;;;7.60;95.58;101622.28;5096032;28;20512;-74
2020/12/01 07:51:35;;;;;;;23.77;4.25;;;;;;;7.61;95.88;101626.66;5094584;28;20028;-74
2020/12/01 07:54:06;;;;;;;21.73;3.17;;;;;;;7.61;95.61;101631.91;5089125;28;20028;-74
2020/12/01 07:56:31;;;;;;;18.27;3.60;;;;;;;7.61;95.37;101634.53;5091614;28;20099;-73
2020/12/01 07:59:06;;;;;;;20.58;3.33;;;;;;;7.57;98.03;101646.00;5095433;28;20107;-74
2020/12/01 08:01:32;;;;;;;29.25;4.38;;;;;;;7.53;99.05;101643.47;5091158;28;20024;-74
2020/12/01 08:04:10;;;;;;;26.08;5.93;;;;;;;7.53;98.82;101642.59;5095353;28;20039;-74
2020/12/01 08:06:35;;;;;;;34.20;5.03;;;;;;;7.48;98.03;101653.19;5099978;28;20027;-74
2020/12/01 08:09:10;;;;;;;31.25;4.65;;;;;;;7.47;97.37;101654.06;5100489;28;20500;-75
2020/12/01 08:11:39;;;;;;;28.90;4.82;;;;;;;7.47;96.85;101666.34;5093461;28;20057;-75
2020/12/01 08:14:06;;;;;;;34.92;5.22;;;;;;;7.49;96.55;101670.72;5091366;28;20046;-75
2020/12/01 08:16:32;;;;;;;29.05;4.75;;;;;;;7.52;96.43;101661.88;5092892;28;20024;-75
2020/12/01 08:18:58;;;;;;;23.67;5.63;;;;;;;7.56;95.76;101668.81;5091591;28;20062;-75
2020/12/01 08:21:29;;;;;;;24.20;4.50;;;;;;;7.62;95.39;101668.69;5093331;28;20032;-74
2020/12/01 08:23:59;;;;;;;30.30;4.88;;;;;;;7.57;95.54;101661.78;5089364;28;20059;-76
2020/12/01 08:26:31;;;;;;;31.85;5.03;;;;;;;7.66;94.77;101680.91;5092691;28;20091;-74
2020/12/01 08:29:19;;;;;;;27.27;5.53;;;;;;;7.71;93.89;101686.94;5090496;28;20118;-76
2020/12/01 08:31:56;;;;;;;28.75;3.67;;;;;;;7.74;93.46;101683.41;5094716;28;20113;-75
2020/12/01 08:34:44;;;;;;;31.77;5.40;;;;;;;7.75;93.34;101680.75;5092370;28;20024;-75
2020/12/01 08:37:21;;;;;;;27.35;5.13;;;;;;;7.77;92.92;101693.84;5091930;28;20092;-75
2020/12/01 08:40:07;;;;;;;44.30;6.38;;;;;;;7.75;92.98;101695.66;5097031;28;20027;-74
2020/12/01 08:42:57;;;;;;;35.40;5.00;;;;;;;7.75;92.90;101696.53;5088632;28;20100;-74
2020/12/01 08:45:34;;;;;;;29.48;4.85;;;;;;;7.78;92.44;101706.13;5090109;28;20026;-74
2020/12/01 08:48:03;;;;;;;31.48;6.13;;;;;;;7.82;91.75;101692.00;5090954;28;20024;-75
2020/12/01 08:50:35;;;;;;;33.00;5.07;;;;;;;7.89;91.66;101701.53;5094193;28;20027;-74
2020/12/01 08:53:20;;;;;;;27.23;4.90;;;;;;;7.88;91.63;101701.53;5093464;28;20090;-73
2020/12/01 08:55:51;;;;;;;32.30;7.15;;;;;;;7.91;91.24;101699.72;5093425;28;20042;-74
2020/12/01 08:58:28;;;;;;;27.90;4.80;;;;;;;7.93;90.52;101703.22;5091065;28;20151;-75
2020/12/01 09:01:00;;;;;;;49.50;5.03;;;;;;;7.97;90.36;101707.50;5084988;28;20051;-74
2020/12/01 09:03:27;;;;;;;29.73;4.57;;;;;;;8.00;89.91;101715.34;5101959;28;20376;-73
2020/12/01 09:05:52;;;;;;;28.58;5.82;;;;;;;8.06;89.37;101714.34;5092068;28;20550;-74
2020/12/01 09:08:47;;;;;;;24.10;4.57;;;;;;;8.07;89.36;101734.50;5095402;28;20070;-74
2020/12/01 09:14:13;;;;;;;24.38;3.95;;;;;;;8.07;89.71;101729.25;5086591;28;20394;-73
2020/12/01 09:16:51;;;;;;;19.15;3.40;;;;;;;8.06;89.53;101738.03;5090374;28;20500;-74
2020/12/01 09:19:49;;;;;;;23.15;3.83;;;;;;;8.12;88.99;101737.06;5096673;28;20102;-74
2020/12/01 09:22:14;;;;;;;21.45;3.55;;;;;;;8.25;88.56;101742.06;5090671;28;20039;-74
2020/12/01 09:24:40;;;;;;;32.13;4.45;;;;;;;8.27;87.70;101739.38;5089900;28;20039;-74
2020/12/01 09:27:11;;;;;;;25.33;3.88;;;;;;;8.23;87.95;101743.84;5094062;28;20056;-74
2020/12/01 09:29:37;;;;;;;28.17;3.85;;;;;;;8.21;87.50;101742.13;5092281;28;20051;-74
2020/12/01 09:32:06;;;;;;;23.70;4.22;;;;;;;8.18;87.07;101760.63;5094083;28;20031;-74
2020/12/01 09:34:32;;;;;;;30.40;5.05;;;;;;;8.18;87.44;101758.00;5095838;28;20032;-74
2020/12/01 09:37:01;;;;;;;33.72;3.72;;;;;;;8.17;87.54;101761.53;5093091;28;20020;-75
2020/12/01 09:39:27;;;;;;;25.88;4.60;;;;;;;8.22;86.27;101762.31;5096690;28;20028;-75
2020/12/01 09:42:00;;;;;;;34.58;6.82;;;;;;;8.33;86.74;101773.47;5096382;28;20036;-74
2020/12/01 09:47:13;;;;;;;20.80;4.00;;;;;;;8.45;84.83;101768.00;5095055;28;20102;-74
2020/12/01 09:49:39;;;;;;;32.28;7.28;;;;;;;8.52;84.97;101777.50;5096437;28;20540;-74
2020/12/01 09:52:11;;;;;;;24.92;3.80;;;;;;;8.50;84.57;101784.59;5096839;28;20039;-74
2020/12/01 09:54:43;;;;;;;27.88;4.00;;;;;;;8.55;84.29;101787.13;5093154;28;20464;-75
2020/12/01 09:57:21;;;;;;;34.03;4.80;;;;;;;8.61;83.18;101787.00;5092826;28;20032;-74
2020/12/01 10:00:00;;;;;;;28.67;4.25;;;;;;;8.69;83.43;101785.06;5094506;28;20094;-75
2020/12/01 10:10:45;;;;;;;33.53;4.40;;;;;;;8.61;83.10;101791.41;5094696;28;20028;-74
2020/12/01 10:13:28;;;;;;;26.17;3.75;;;;;;;8.63;83.00;101789.59;5096165;28;20081;-73
2020/12/01 10:18:52;;;;;;;38.60;4.85;;;;;;;8.70;82.67;101799.97;5091652;28;20501;-73
2020/12/01 10:22:00;;;;;;;25.88;4.60;;;;;;;8.71;82.00;101799.06;5095401;28;20071;-73
2020/12/01 10:25:08;;;;;;;18.08;4.28;;;;;;;8.73;81.71;101792.00;5094151;28;20024;-73
2020/12/01 10:32:29;;;;;;;32.88;4.07;;;;;;;9.08;80.79;101803.53;5095819;28;20032;-74
2020/12/01 10:35:10;;;;;;;35.83;4.10;;;;;;;9.48;78.69;101802.59;5124659;27;20031;-73
2020/12/01 10:37:36;;;;;;;38.88;4.47;;;;;;;9.89;77.47;101801.56;5096629;28;20031;-72
2020/12/01 10:40:03;;;;;;;24.85;4.80;;;;;;;10.66;74.85;101802.09;5094394;28;20020;-74
2020/12/01 10:42:28;;;;;;;26.40;4.40;;;;;;;10.68;74.48;101797.59;5095348;28;20084;-74
2020/12/01 10:44:53;;;;;;;27.10;3.72;;;;;;;10.28;74.95;101794.34;5094218;28;20103;-72
2020/12/01 10:47:18;;;;;;;33.33;5.15;;;;;;;10.18;75.37;101799.88;5092841;28;20027;-73
2020/12/01 10:49:44;;;;;;;26.92;4.25;;;;;;;10.41;74.68;101796.66;5093284;28;20019;-73
2020/12/01 10:52:09;;;;;;;27.65;4.20;;;;;;;10.02;75.49;101800.31;5089515;28;20528;-73
2020/12/01 10:54:34;;;;;;;38.55;6.05;;;;;;;9.87;75.83;101798.06;5091335;28;20054;-73
2020/12/01 10:57:00;;;;;;;36.45;6.38;;;;;;;9.80;76.84;101805.28;5093739;28;20032;-74
2020/12/01 10:59:26;;;;;;;31.50;5.50;;;;;;;9.66;77.05;101799.50;5090168;28;20051;-74
2020/12/01 11:01:52;;;;;;;27.50;4.05;;;;;;;9.58;77.29;101804.94;5090402;28;20030;-74
2020/12/01 11:04:18;;;;;;;33.67;5.13;;;;;;;9.71;76.45;101809.94;5090954;28;20467;-74
2020/12/01 11:06:44;;;;;;;32.63;6.28;;;;;;;9.78;75.53;101808.88;5091233;28;20032;-74
2020/12/01 11:09:10;;;;;;;28.73;4.95;;;;;;;9.89;74.44;101803.31;5090069;28;20394;-74
2020/12/01 11:11:35;;;;;;;46.72;5.28;;;;;;;10.36;72.26;101802.06;5085332;28;20021;-74
2020/12/01 11:14:02;;;;;;;28.27;4.85;;;;;;;11.45;69.81;101804.03;5125345;27;20028;-75
2020/12/01 11:16:27;;;;;;;23.58;5.05;;;;;;;12.17;66.78;101805.97;5093887;28;20024;-74
2020/12/01 11:18:52;;;;;;;26.77;4.22;;;;;;;11.23;69.20;101803.84;5096297;28;20035;-74
2020/12/01 11:21:18;;;;;;;26.55;4.60;;;;;;;11.13;69.40;101819.16;5092131;28;20099;-74
2020/12/01 11:23:43;;;;;;;26.25;4.15;;;;;;;11.88;67.01;101808.78;5127542;27;20048;-75
2020/12/01 11:26:20;;;;;;;24.98;4.32;;;;;;;11.82;66.92;101807.22;5097374;28;20508;-74
2020/12/01 11:28:47;;;;;;;29.95;5.28;;;;;;;11.00;69.31;101823.09;5091658;28;20164;-74
2020/12/01 11:31:13;;;;;;;32.97;5.63;;;;;;;11.68;68.66;101823.53;5098271;28;20024;-75
2020/12/01 11:33:39;;;;;;;28.42;6.38;;;;;;;11.05;69.70;101829.97;5095980;28;20031;-74
2020/12/01 11:36:05;;;;;;;29.20;4.57;;;;;;;10.65;71.34;101826.81;5093115;28;20027;-74
2020/12/01 11:38:31;;;;;;;27.30;4.25;;;;;;;10.32;72.85;101834.75;5094686;28;20048;-74
2020/12/01 11:40:56;;;;;;;23.08;4.60;;;;;;;10.10;73.62;101839.72;5094346;28;20035;-74
2020/12/01 11:43:21;;;;;;;33.08;5.75;;;;;;;9.94;73.46;101846.31;5096053;28;20024;-75
2020/12/01 11:45:47;;;;;;;25.48;3.33;;;;;;;9.88;74.75;101839.41;5094084;28;20012;-72
2020/12/01 11:48:12;;;;;;;27.20;4.68;;;;;;;9.78;74.87;101849.34;5082345;28;20028;-72
2020/12/01 11:50:37;;;;;;;33.25;5.55;;;;;;;9.89;74.68;101854.38;5095346;28;20034;-72
2020/12/01 11:53:02;;;;;;;26.30;4.97;;;;;;;10.00;73.78;101846.16;5096221;28;20392;-72
2020/12/01 11:55:28;;;;;;;22.10;3.67;;;;;;;10.25;73.24;101843.78;5090983;28;20036;-72
2020/12/01 11:57:53;;;;;;;30.13;4.22;;;;;;;10.38;73.30;101840.72;5093188;28;20100;-72
2020/12/01 12:00:22;;;;;;;29.67;4.63;;;;;;;10.18;72.06;101843.03;5090581;28;20032;-73
2020/12/01 12:02:47;;;;;;;26.50;5.05;;;;;;;10.35;72.19;101837.31;5095084;28;20023;-73
2020/12/01 12:05:13;;;;;;;27.95;4.65;;;;;;;11.11;70.12;101840.38;5097331;28;20031;-73
2020/12/01 12:07:38;;;;;;;24.40;4.68;;;;;;;11.31;68.55;101844.19;5092063;28;20548;-73